createdAt,value
2022-12-07T00:00:16.907Z,27.92
2022-12-07T00:03:18.539Z,32.55
2022-12-07T00:06:21.259Z,34.22
2022-12-07T00:09:23.007Z,29.90
2022-12-07T00:12:24.638Z,32.27
2022-12-07T00:15:26.447Z,23.85
2022-12-07T00:18:28.099Z,17.15
2022-12-07T00:21:33.265Z,16.98
2022-12-07T00:24:34.903Z,17.17
2022-12-07T00:27:36.638Z,18.20
2022-12-07T00:30:38.402Z,19.92
2022-12-07T00:33:40.109Z,29.83
2022-12-07T00:36:41.772Z,23.05
2022-12-07T00:39:43.397Z,21.63
2022-12-07T00:42:45.025Z,21.83
2022-12-07T00:45:46.983Z,20.17
2022-12-07T00:48:50.153Z,19.45
2022-12-07T00:51:51.843Z,18.48
2022-12-07T00:54:53.585Z,17.17
2022-12-07T00:57:55.170Z,17.93
2022-12-07T01:01:01.427Z,17.27
2022-12-07T01:04:03.885Z,18.17
2022-12-07T01:07:05.523Z,16.98
2022-12-07T01:10:08.941Z,18.03
2022-12-07T01:13:10.625Z,18.33
2022-12-07T01:16:15.143Z,18.75
2022-12-07T01:19:16.862Z,17.02
2022-12-07T01:22:18.470Z,20.88
2022-12-07T01:25:20.164Z,20.87
2022-12-07T01:28:21.962Z,21.00
2022-12-07T01:31:25.869Z,20.50
2022-12-07T01:34:27.563Z,21.98
2022-12-07T01:37:29.179Z,23.80
2022-12-07T01:40:30.814Z,17.10
2022-12-07T01:43:34.660Z,18.97
2022-12-07T01:46:36.393Z,20.00
2022-12-07T01:49:41.743Z,15.63
2022-12-07T01:52:47.659Z,16.33
2022-12-07T01:55:52.876Z,16.67
2022-12-07T01:58:58.207Z,19.47
2022-12-07T02:02:01.793Z,19.98
2022-12-07T02:05:05.571Z,19.33
2022-12-07T02:08:08.363Z,18.65
2022-12-07T02:11:10.642Z,16.80
2022-12-07T02:14:12.374Z,18.23
2022-12-07T02:17:30.220Z,19.45
2022-12-07T02:20:38.866Z,18.27
2022-12-07T02:24:11.290Z,17.15
2022-12-07T02:27:40.798Z,18.67
2022-12-07T02:30:48.348Z,20.97
2022-12-07T02:34:05.693Z,15.63
2022-12-07T02:37:20.758Z,17.95
2022-12-07T02:40:34.481Z,17.00
2022-12-07T02:43:41.905Z,14.17
2022-12-07T02:46:48.344Z,18.33
2022-12-07T02:49:50.621Z,15.50
2022-12-07T02:52:52.322Z,18.65
2022-12-07T02:55:53.907Z,14.35
2022-12-07T02:59:16.222Z,14.53
2022-12-07T03:02:51.298Z,15.00
2022-12-07T03:06:10.727Z,17.60
2022-12-07T03:09:21.118Z,22.25
2022-12-07T03:12:28.866Z,23.10
2022-12-07T03:15:36.869Z,19.37
2022-12-07T03:18:49.414Z,16.47
2022-12-07T03:21:57.600Z,19.42
2022-12-07T03:25:04.073Z,17.42
2022-12-07T03:28:07.682Z,17.13
2022-12-07T03:31:20.869Z,18.33
2022-12-07T03:34:35.257Z,16.20
2022-12-07T03:37:45.735Z,30.95
2022-12-07T03:41:07.635Z,28.88
2022-12-07T03:44:09.910Z,21.20
2022-12-07T03:47:26.662Z,16.33
2022-12-07T03:50:54.486Z,23.20
2022-12-07T03:54:10.359Z,17.55
2022-12-07T03:57:13.471Z,19.92
2022-12-07T04:00:17.229Z,21.50
2022-12-07T04:03:18.887Z,20.30
2022-12-07T04:06:20.667Z,17.27
2022-12-07T04:09:22.566Z,18.75
2022-12-07T04:12:24.746Z,16.35
2022-12-07T04:15:26.419Z,17.80
2022-12-07T04:18:28.164Z,13.97
2022-12-07T04:21:29.911Z,17.93
2022-12-07T04:24:31.540Z,15.80
2022-12-07T04:27:33.224Z,16.95
2022-12-07T04:30:35.285Z,18.35
2022-12-07T04:33:37.451Z,14.63
2022-12-07T04:36:39.590Z,16.93
2022-12-07T04:39:41.872Z,15.63
2022-12-07T04:42:43.521Z,16.50
2022-12-07T04:45:49.215Z,16.48
2022-12-07T04:48:51.877Z,15.07
2022-12-07T04:51:53.588Z,16.50
2022-12-07T04:54:55.234Z,17.63
2022-12-07T04:57:56.890Z,18.00
2022-12-07T05:00:58.570Z,17.52
2022-12-07T05:04:00.228Z,18.03
2022-12-07T05:07:02.072Z,25.83
2022-12-07T05:10:04.147Z,23.92
2022-12-07T05:13:06.111Z,24.17
2022-12-07T05:16:07.896Z,22.75
2022-12-07T05:19:11.491Z,18.17
2022-12-07T05:22:14.399Z,23.80
2022-12-07T05:25:16.072Z,22.00
2022-12-07T05:28:17.678Z,21.33
2022-12-07T05:31:19.862Z,19.45
2022-12-07T05:34:21.773Z,20.33
2022-12-07T05:37:23.465Z,23.73
2022-12-07T05:40:25.104Z,25.25
2022-12-07T05:43:26.824Z,27.25
2022-12-07T05:46:28.518Z,63.05
2022-12-07T05:49:30.305Z,27.07
2022-12-07T05:52:32.065Z,25.63
2022-12-07T05:55:33.861Z,21.20
2022-12-07T05:58:54.409Z,22.02
2022-12-07T06:01:59.006Z,25.02
2022-12-07T06:05:00.723Z,23.20
2022-12-07T06:08:05.932Z,23.60
2022-12-07T06:11:26.212Z,31.52
2022-12-07T06:14:27.839Z,27.63
2022-12-07T06:17:29.498Z,31.15
2022-12-07T06:20:31.546Z,34.93
2022-12-07T06:23:33.206Z,28.30
2022-12-07T06:26:34.885Z,21.95
2022-12-07T06:29:36.714Z,25.00
2022-12-07T06:32:38.558Z,25.38
2022-12-07T06:35:48.281Z,33.17
2022-12-07T06:38:53.745Z,29.27
2022-12-07T06:41:55.547Z,27.67
2022-12-07T06:45:11.345Z,27.58
2022-12-07T06:48:13.115Z,22.83
2022-12-07T06:51:14.751Z,24.80
2022-12-07T06:54:18.289Z,24.10
2022-12-07T06:57:21.211Z,19.75
2022-12-07T07:00:23.122Z,23.17
2022-12-07T07:03:24.953Z,29.33
2022-12-07T07:06:29.731Z,27.60
2022-12-07T07:09:31.345Z,23.77
2022-12-07T07:12:32.990Z,32.45
2022-12-07T07:15:35.269Z,25.08
2022-12-07T07:18:37.321Z,20.30
2022-12-07T07:21:39.057Z,18.37
2022-12-07T07:24:40.657Z,22.03
2022-12-07T07:27:43.139Z,16.42
2022-12-07T07:30:45.520Z,17.98
2022-12-07T07:33:47.947Z,16.92
2022-12-07T07:36:49.625Z,17.60
2022-12-07T07:39:51.205Z,18.80
2022-12-07T07:42:54.534Z,19.20
2022-12-07T07:45:56.211Z,19.52
2022-12-07T07:49:08.070Z,15.90
2022-12-07T07:52:17.245Z,16.43
2022-12-07T07:55:19.072Z,16.60
2022-12-07T07:58:21.768Z,18.10
2022-12-07T08:01:23.508Z,16.65
2022-12-07T08:04:25.206Z,16.42
2022-12-07T08:07:28.752Z,18.00
2022-12-07T08:10:33.011Z,28.33
2022-12-07T08:13:34.864Z,22.98
2022-12-07T08:16:36.433Z,37.50
2022-12-07T08:19:38.074Z,36.20
2022-12-07T08:22:39.790Z,21.93
2022-12-07T08:25:41.880Z,23.40
2022-12-07T08:28:43.941Z,24.23
2022-12-07T08:31:45.837Z,22.08
2022-12-07T08:34:47.516Z,20.55
2022-12-07T08:37:49.380Z,17.53
2022-12-07T08:40:58.544Z,14.33
2022-12-07T08:44:00.202Z,18.05
2022-12-07T08:47:05.941Z,13.75
2022-12-07T08:50:10.010Z,13.10
2022-12-07T08:53:11.724Z,13.20
2022-12-07T08:56:13.451Z,17.93
2022-12-07T08:59:16.877Z,25.05
2022-12-07T09:02:18.550Z,18.30
2022-12-07T09:05:20.714Z,15.38
2022-12-07T09:08:27.260Z,18.30
2022-12-07T09:11:58.047Z,15.90
2022-12-07T09:19:19.090Z,16.05
2022-12-07T09:22:20.769Z,17.77
2022-12-07T09:25:22.686Z,14.13
2022-12-07T09:28:24.718Z,15.23
2022-12-07T09:31:27.308Z,13.45
2022-12-07T09:34:33.053Z,12.38
2022-12-07T09:37:37.064Z,12.95
2022-12-07T09:40:58.217Z,15.73
2022-12-07T09:44:10.866Z,12.40
2022-12-07T09:47:12.544Z,18.33
2022-12-07T09:50:22.068Z,15.32
2022-12-07T09:53:30.048Z,16.27
2022-12-07T09:56:32.153Z,14.17
2022-12-07T09:59:36.726Z,11.07
2022-12-07T10:02:42.918Z,12.55
2022-12-07T10:05:49.445Z,12.23
2022-12-07T10:08:51.519Z,14.40
2022-12-07T10:12:01.432Z,21.33
2022-12-07T10:15:08.851Z,24.17
2022-12-07T10:18:37.448Z,19.83
2022-12-07T10:21:39.079Z,15.18
2022-12-07T10:24:43.620Z,17.52
2022-12-07T10:27:59.204Z,18.97
2022-12-07T10:31:04.993Z,10.23
2022-12-07T10:34:23.176Z,9.57
2022-12-07T10:37:29.051Z,8.93
2022-12-07T10:40:37.902Z,9.23
2022-12-07T10:43:53.006Z,13.87
2022-12-07T10:47:32.129Z,7.63
2022-12-07T10:50:52.084Z,9.77
2022-12-07T10:53:59.439Z,12.15
2022-12-07T10:57:15.359Z,7.68
2022-12-07T11:00:17.373Z,8.90
2022-12-07T11:03:37.323Z,9.70
2022-12-07T11:06:57.491Z,7.20
2022-12-07T11:10:31.950Z,8.07
2022-12-07T11:13:48.331Z,8.30
2022-12-07T11:17:10.029Z,7.20
2022-12-07T11:20:17.793Z,11.50
2022-12-07T11:23:38.768Z,12.80
2022-12-07T11:27:04.061Z,8.98
2022-12-07T11:30:27.876Z,9.43
2022-12-07T11:33:54.898Z,9.57
2022-12-07T11:36:57.775Z,9.00
2022-12-07T11:40:22.686Z,15.93
2022-12-07T11:43:28.190Z,9.57
2022-12-07T11:46:57.608Z,10.48
2022-12-07T11:50:22.319Z,11.37
2022-12-07T11:53:30.765Z,13.67
2022-12-07T11:56:37.779Z,12.45
2022-12-07T11:59:45.734Z,23.27
2022-12-07T12:02:59.479Z,19.45
2022-12-07T12:06:01.156Z,11.23
2022-12-07T12:16:14.552Z,9.40
2022-12-07T12:19:27.640Z,8.95
2022-12-07T12:22:41.998Z,8.03
2022-12-07T12:25:50.892Z,8.67
2022-12-07T12:29:07.245Z,9.55
2022-12-07T12:32:45.484Z,9.30
2022-12-07T12:36:34.449Z,11.00
2022-12-07T12:40:27.094Z,10.77
2022-12-07T12:43:53.508Z,9.97
2022-12-07T12:47:27.404Z,8.00
2022-12-07T12:50:38.728Z,9.30
2022-12-07T12:53:41.800Z,11.48
2022-12-07T12:56:46.515Z,8.67
2022-12-07T12:59:48.161Z,11.20
2022-12-07T13:02:53.432Z,13.18
2022-12-07T13:06:20.820Z,11.98
2022-12-07T13:09:26.905Z,9.68
2022-12-07T13:12:28.600Z,11.70
2022-12-07T13:15:38.391Z,13.73
2022-12-07T13:18:40.310Z,10.40
2022-12-07T13:21:44.334Z,8.93
2022-12-07T13:24:47.301Z,14.73
2022-12-07T13:28:03.289Z,11.07
2022-12-07T13:31:35.723Z,12.90
2022-12-07T13:34:42.171Z,11.68
2022-12-07T13:37:44.013Z,12.73
2022-12-07T13:41:20.441Z,14.23
2022-12-07T13:44:23.056Z,13.23
2022-12-07T13:47:48.931Z,19.77
2022-12-07T13:50:57.232Z,47.67
2022-12-07T13:54:11.133Z,19.73
2022-12-07T13:57:13.014Z,11.40
2022-12-07T14:00:19.030Z,13.60
2022-12-07T14:03:29.463Z,16.27
2022-12-07T14:06:31.346Z,19.70
2022-12-07T14:09:32.963Z,18.63
2022-12-07T14:12:37.799Z,23.95
2022-12-07T14:15:39.786Z,21.37
2022-12-07T14:18:42.800Z,21.97
2022-12-07T14:21:48.003Z,19.15
2022-12-07T14:24:49.734Z,17.02
2022-12-07T14:27:57.458Z,15.63
2022-12-07T14:31:00.632Z,17.27
2022-12-07T14:34:02.276Z,19.10
2022-12-07T14:37:05.144Z,25.48
2022-12-07T14:40:13.510Z,23.75
2022-12-07T14:43:17.453Z,19.85
2022-12-07T14:46:19.141Z,42.80
2022-12-07T14:49:36.770Z,40.67
2022-12-07T14:56:01.679Z,32.50
2022-12-07T14:59:03.359Z,33.60
2022-12-07T15:02:06.411Z,35.57
2022-12-07T15:05:14.070Z,38.13
2022-12-07T15:08:17.770Z,39.40
2022-12-07T15:11:19.630Z,40.53
2022-12-07T15:14:21.376Z,52.63
2022-12-07T15:17:31.319Z,53.93
2022-12-07T15:20:33.918Z,66.07
2022-12-07T15:23:35.589Z,64.90
2022-12-07T15:26:38.270Z,57.60
2022-12-07T15:29:40.060Z,41.30
2022-12-07T15:32:41.869Z,42.70
2022-12-07T15:35:45.666Z,31.30
2022-12-07T15:39:13.059Z,26.52
2022-12-07T15:42:09.330Z,31.55
2022-12-07T15:45:11.442Z,31.65
2022-12-07T15:48:29.496Z,29.77
2022-12-07T15:51:32.753Z,31.80
2022-12-07T15:54:34.417Z,28.70
2022-12-07T15:57:38.046Z,25.40
2022-12-07T16:00:39.717Z,21.33
2022-12-07T16:03:42.055Z,25.00
2022-12-07T16:06:43.766Z,25.63
2022-12-07T16:09:47.223Z,25.42
2022-12-07T16:12:48.910Z,25.85
2022-12-07T16:15:51.100Z,17.42
2022-12-07T16:18:52.906Z,23.90
2022-12-07T16:21:54.643Z,20.73
2022-12-07T16:24:56.305Z,19.90
2022-12-07T16:27:58.005Z,19.25
2022-12-07T16:31:08.720Z,25.40
2022-12-07T16:34:10.664Z,24.43
2022-12-07T16:37:14.914Z,15.03
2022-12-07T16:40:16.737Z,18.42
2022-12-07T16:43:18.443Z,19.75
2022-12-07T16:46:20.198Z,19.67
2022-12-07T16:49:22.059Z,16.43
2022-12-07T16:52:23.638Z,16.87
2022-12-07T16:55:25.297Z,22.90
2022-12-07T16:58:27.083Z,20.63
2022-12-07T17:01:29.467Z,20.13
2022-12-07T17:04:31.330Z,28.20
2022-12-07T17:07:32.970Z,40.13
2022-12-07T17:10:37.063Z,27.60
2022-12-07T17:13:57.298Z,31.08
2022-12-07T17:17:01.391Z,31.83
2022-12-07T17:20:04.821Z,34.37
2022-12-07T17:23:06.867Z,28.77
2022-12-07T17:26:16.542Z,27.63
2022-12-07T17:29:19.706Z,30.85
2022-12-07T17:32:21.442Z,31.35
2022-12-07T17:35:23.424Z,36.47
2022-12-07T17:38:25.225Z,30.63
2022-12-07T17:41:46.836Z,39.38
2022-12-07T17:44:48.570Z,42.25
2022-12-07T17:47:50.438Z,41.22
2022-12-07T17:51:21.739Z,44.77
2022-12-07T17:54:23.456Z,49.73
2022-12-07T17:57:25.162Z,47.63
2022-12-07T18:00:26.993Z,54.67
2022-12-07T18:03:28.657Z,42.38
2022-12-07T18:06:30.771Z,37.87
2022-12-07T18:09:32.638Z,38.27
2022-12-07T18:12:34.312Z,39.75
2022-12-07T18:15:36.226Z,36.40
2022-12-07T18:18:38.850Z,36.92
2022-12-07T18:21:41.047Z,33.90
2022-12-07T18:24:43.240Z,40.70
2022-12-07T18:27:45.086Z,37.17
2022-12-07T18:31:20.856Z,38.30
2022-12-07T18:34:17.481Z,38.30
2022-12-07T18:37:19.131Z,36.90
2022-12-07T18:40:20.754Z,38.23
2022-12-07T18:43:25.462Z,31.38
2022-12-07T18:46:27.362Z,34.35
2022-12-07T18:49:29.556Z,36.65
2022-12-07T18:52:31.602Z,43.73
2022-12-07T18:55:34.687Z,40.60
2022-12-07T18:58:36.588Z,44.38
2022-12-07T19:01:39.117Z,40.53
2022-12-07T19:04:41.385Z,41.72
2022-12-07T19:07:44.342Z,39.93
2022-12-07T19:10:46.252Z,37.83
2022-12-07T19:13:48.368Z,36.70
2022-12-07T19:16:53.390Z,43.88
2022-12-07T19:19:55.168Z,41.17
2022-12-07T19:22:57.079Z,41.00
2022-12-07T19:25:58.901Z,37.63
2022-12-07T19:29:00.682Z,43.05
2022-12-07T19:32:04.427Z,37.58
2022-12-07T19:35:06.654Z,35.60
2022-12-07T19:38:09.813Z,36.80
2022-12-07T19:41:32.282Z,36.43
2022-12-07T19:44:34.628Z,38.28
2022-12-07T19:47:36.545Z,42.95
2022-12-07T19:50:38.317Z,44.45
2022-12-07T19:53:44.484Z,48.17
2022-12-07T19:56:47.446Z,56.60
2022-12-07T19:59:49.328Z,70.85
2022-12-07T20:02:52.023Z,56.67
2022-12-07T20:05:53.958Z,48.22
2022-12-07T20:08:55.962Z,61.53
2022-12-07T20:12:16.412Z,82.10
2022-12-07T20:15:18.683Z,85.57
2022-12-07T20:18:20.621Z,51.97
2022-12-07T20:21:22.693Z,117.38
2022-12-07T20:24:25.603Z,78.90
2022-12-07T20:27:28.627Z,67.57
2022-12-07T20:30:30.636Z,54.88
2022-12-07T20:33:32.792Z,42.05
2022-12-07T20:36:34.756Z,29.70
2022-12-07T20:39:36.634Z,32.53
2022-12-07T20:42:38.486Z,26.90
2022-12-07T20:45:47.961Z,29.95
2022-12-07T20:48:50.037Z,29.00
2022-12-07T20:51:51.935Z,32.22
2022-12-07T20:54:53.801Z,30.60
2022-12-07T20:57:55.452Z,29.50
2022-12-07T21:01:01.599Z,27.25
2022-12-07T21:04:03.343Z,25.45
2022-12-07T21:07:05.014Z,29.13
2022-12-07T21:10:07.570Z,26.83
2022-12-07T21:13:09.433Z,30.00
2022-12-07T21:16:17.077Z,26.58
2022-12-07T21:19:18.822Z,31.42
2022-12-07T21:22:20.544Z,55.47
2022-12-07T21:25:22.212Z,66.87
2022-12-07T21:28:24.127Z,76.50
2022-12-07T21:31:26.748Z,53.03
2022-12-07T21:34:28.515Z,35.15
2022-12-07T21:37:30.406Z,30.85
2022-12-07T21:40:32.274Z,33.07
2022-12-07T21:43:33.970Z,34.37
2022-12-07T21:46:36.031Z,43.55
2022-12-07T21:49:37.827Z,38.08
2022-12-07T21:52:39.438Z,39.97
2022-12-07T21:55:42.621Z,38.80
2022-12-07T21:58:45.010Z,34.33
2022-12-07T22:01:48.408Z,35.05
2022-12-07T22:04:50.297Z,34.13
2022-12-07T22:07:52.013Z,33.17
2022-12-07T22:10:53.947Z,31.93
2022-12-07T22:14:14.128Z,33.23
2022-12-07T22:17:15.782Z,36.60
2022-12-07T22:20:19.144Z,33.08
2022-12-07T22:23:20.723Z,30.45
2022-12-07T22:26:24.535Z,28.60
2022-12-07T22:29:26.581Z,29.77
2022-12-07T22:35:53.970Z,27.23
2022-12-07T22:38:55.909Z,29.02
2022-12-07T22:41:57.512Z,27.50
2022-12-07T22:44:59.554Z,27.17
2022-12-07T22:48:01.191Z,26.42
2022-12-07T22:51:03.299Z,30.10
2022-12-07T22:54:08.006Z,28.95
2022-12-07T22:57:09.648Z,29.97
2022-12-07T23:00:12.074Z,39.60
2022-12-07T23:03:14.876Z,38.85
2022-12-07T23:06:19.723Z,35.45
2022-12-07T23:09:21.372Z,35.17
2022-12-07T23:12:42.345Z,33.07
2022-12-07T23:15:43.974Z,33.80
2022-12-07T23:18:45.723Z,46.13
2022-12-07T23:21:47.620Z,44.50
2022-12-07T23:24:49.445Z,40.28
2022-12-07T23:27:51.028Z,42.13
2022-12-07T23:30:52.677Z,45.63
2022-12-07T23:33:54.398Z,55.80
2022-12-07T23:36:56.073Z,52.47
2022-12-07T23:39:57.771Z,36.08
2022-12-07T23:42:59.672Z,28.87
2022-12-07T23:46:01.469Z,26.90
2022-12-07T23:49:06.148Z,30.73
2022-12-07T23:52:07.773Z,31.95
2022-12-07T23:55:09.567Z,34.92
2022-12-07T23:58:11.180Z,31.60
